sensor_id;sensor_type;location;lat;lon;timestamp;temperature;humidity
37998;DHT22;24079;51.824;4.682;2023-02-18T00:02:02;9.50;99.90
37998;DHT22;24079;51.824;4.682;2023-02-18T00:04:28;9.50;99.90
37998;DHT22;24079;51.824;4.682;2023-02-18T00:06:53;9.50;99.90
37998;DHT22;24079;51.824;4.682;2023-02-18T00:09:19;9.50;99.90
37998;DHT22;24079;51.824;4.682;2023-02-18T00:11:44;9.50;99.90
37998;DHT22;24079;51.824;4.682;2023-02-18T00:14:12;9.50;99.90
37998;DHT22;24079;51.824;4.682;2023-02-18T00:16:38;9.50;99.90
37998;DHT22;24079;51.824;4.682;2023-02-18T00:19:05;9.50;99.90
37998;DHT22;24079;51.824;4.682;2023-02-18T00:21:32;9.60;99.90
37998;DHT22;24079;51.824;4.682;2023-02-18T00:23:59;9.60;99.90
37998;DHT22;24079;51.824;4.682;2023-02-18T00:26:25;9.60;99.90
37998;DHT22;24079;51.824;4.682;2023-02-18T00:28:51;9.60;99.90
37998;DHT22;24079;51.824;4.682;2023-02-18T00:31:25;9.70;99.90
37998;DHT22;24079;51.824;4.682;2023-02-18T00:33:52;9.70;99.90
37998;DHT22;24079;51.824;4.682;2023-02-18T00:36:19;9.80;99.90
37998;DHT22;24079;51.824;4.682;2023-02-18T00:38:47;9.80;99.90
37998;DHT22;24079;51.824;4.682;2023-02-18T00:41:14;9.80;99.90
37998;DHT22;24079;51.824;4.682;2023-02-18T00:43:40;9.90;99.90
37998;DHT22;24079;51.824;4.682;2023-02-18T00:46:05;9.90;99.90
37998;DHT22;24079;51.824;4.682;2023-02-18T00:48:32;9.90;99.90
37998;DHT22;24079;51.824;4.682;2023-02-18T00:50:59;10.00;99.90
37998;DHT22;24079;51.824;4.682;2023-02-18T00:53:26;10.00;99.90
37998;DHT22;24079;51.824;4.682;2023-02-18T00:55:51;10.00;99.90
37998;DHT22;24079;51.824;4.682;2023-02-18T00:58:17;10.10;99.90
37998;DHT22;24079;51.824;4.682;2023-02-18T01:00:43;10.00;99.90
37998;DHT22;24079;51.824;4.682;2023-02-18T01:03:09;10.10;99.90
37998;DHT22;24079;51.824;4.682;2023-02-18T01:05:36;10.10;99.90
37998;DHT22;24079;51.824;4.682;2023-02-18T01:08:03;10.10;99.90
37998;DHT22;24079;51.824;4.682;2023-02-18T01:10:29;10.10;99.90
37998;DHT22;24079;51.824;4.682;2023-02-18T01:12:55;10.10;99.90
37998;DHT22;24079;51.824;4.682;2023-02-18T01:15:20;10.20;99.90
37998;DHT22;24079;51.824;4.682;2023-02-18T01:17:46;10.20;99.90
37998;DHT22;24079;51.824;4.682;2023-02-18T01:20:13;10.20;99.90
37998;DHT22;24079;51.824;4.682;2023-02-18T01:22:38;10.30;99.90
37998;DHT22;24079;51.824;4.682;2023-02-18T01:25:05;10.30;99.90
37998;DHT22;24079;51.824;4.682;2023-02-18T01:27:31;10.30;99.90
37998;DHT22;24079;51.824;4.682;2023-02-18T01:29:57;10.20;99.90
37998;DHT22;24079;51.824;4.682;2023-02-18T01:32:23;10.20;99.90
37998;DHT22;24079;51.824;4.682;2023-02-18T01:34:48;10.30;99.90
37998;DHT22;24079;51.824;4.682;2023-02-18T01:37:14;10.30;99.90
37998;DHT22;24079;51.824;4.682;2023-02-18T01:39:40;10.30;99.90
37998;DHT22;24079;51.824;4.682;2023-02-18T01:42:06;10.30;99.90
37998;DHT22;24079;51.824;4.682;2023-02-18T01:44:32;10.30;99.90
37998;DHT22;24079;51.824;4.682;2023-02-18T01:46:58;10.30;99.90
37998;DHT22;24079;51.824;4.682;2023-02-18T01:49:33;10.30;99.90
37998;DHT22;24079;51.824;4.682;2023-02-18T01:52:04;10.30;99.90
37998;DHT22;24079;51.824;4.682;2023-02-18T01:54:34;10.30;99.90
37998;DHT22;24079;51.824;4.682;2023-02-18T01:57:22;10.40;99.90
37998;DHT22;24079;51.824;4.682;2023-02-18T01:59:53;10.40;99.90
37998;DHT22;24079;51.824;4.682;2023-02-18T02:02:21;10.40;99.90
37998;DHT22;24079;51.824;4.682;2023-02-18T02:04:48;10.40;99.90
37998;DHT22;24079;51.824;4.682;2023-02-18T02:07:15;10.40;99.90
37998;DHT22;24079;51.824;4.682;2023-02-18T02:09:43;10.40;99.90
37998;DHT22;24079;51.824;4.682;2023-02-18T02:15:15;10.30;99.90
37998;DHT22;24079;51.824;4.682;2023-02-18T02:20:43;10.40;99.90
37998;DHT22;24079;51.824;4.682;2023-02-18T02:37:13;10.40;99.90
37998;DHT22;24079;51.824;4.682;2023-02-18T02:42:58;10.40;99.90
37998;DHT22;24079;51.824;4.682;2023-02-18T02:48:37;10.50;99.90
37998;DHT22;24079;51.824;4.682;2023-02-18T02:53:46;10.50;99.90
37998;DHT22;24079;51.824;4.682;2023-02-18T02:56:16;10.50;99.90
37998;DHT22;24079;51.824;4.682;2023-02-18T02:58:44;10.50;99.90
37998;DHT22;24079;51.824;4.682;2023-02-18T03:04:19;10.60;99.90
37998;DHT22;24079;51.824;4.682;2023-02-18T03:07:01;10.60;99.90
37998;DHT22;24079;51.824;4.682;2023-02-18T03:15:19;10.70;99.90
37998;DHT22;24079;51.824;4.682;2023-02-18T03:17:58;10.70;99.90
37998;DHT22;24079;51.824;4.682;2023-02-18T03:20:35;10.70;99.90
37998;DHT22;24079;51.824;4.682;2023-02-18T03:23:06;10.70;99.90
37998;DHT22;24079;51.824;4.682;2023-02-18T03:25:33;10.70;99.90
37998;DHT22;24079;51.824;4.682;2023-02-18T03:28:04;10.70;99.90
37998;DHT22;24079;51.824;4.682;2023-02-18T03:30:49;10.70;99.90
37998;DHT22;24079;51.824;4.682;2023-02-18T03:33:26;10.70;99.90
37998;DHT22;24079;51.824;4.682;2023-02-18T03:35:53;10.70;99.90
37998;DHT22;24079;51.824;4.682;2023-02-18T03:38:25;10.70;99.90
37998;DHT22;24079;51.824;4.682;2023-02-18T03:40:53;10.70;99.90
37998;DHT22;24079;51.824;4.682;2023-02-18T03:43:18;10.70;99.90
37998;DHT22;24079;51.824;4.682;2023-02-18T03:45:44;10.70;99.90
37998;DHT22;24079;51.824;4.682;2023-02-18T03:48:10;10.60;99.90
37998;DHT22;24079;51.824;4.682;2023-02-18T03:50:35;10.60;99.90
37998;DHT22;24079;51.824;4.682;2023-02-18T03:53:01;10.60;99.90
37998;DHT22;24079;51.824;4.682;2023-02-18T03:55:27;10.50;99.90
37998;DHT22;24079;51.824;4.682;2023-02-18T03:57:52;10.50;99.90
37998;DHT22;24079;51.824;4.682;2023-02-18T04:00:18;10.50;99.90
37998;DHT22;24079;51.824;4.682;2023-02-18T04:02:44;10.50;99.90
37998;DHT22;24079;51.824;4.682;2023-02-18T04:05:12;10.50;99.90
37998;DHT22;24079;51.824;4.682;2023-02-18T04:07:38;10.50;99.90
37998;DHT22;24079;51.824;4.682;2023-02-18T04:10:05;10.50;99.90
37998;DHT22;24079;51.824;4.682;2023-02-18T04:12:31;10.40;99.90
37998;DHT22;24079;51.824;4.682;2023-02-18T04:14:56;10.40;99.90
37998;DHT22;24079;51.824;4.682;2023-02-18T04:17:22;10.40;99.90
37998;DHT22;24079;51.824;4.682;2023-02-18T04:19:47;10.40;99.90
37998;DHT22;24079;51.824;4.682;2023-02-18T04:22:13;10.40;99.90
37998;DHT22;24079;51.824;4.682;2023-02-18T04:24:39;10.40;99.90
37998;DHT22;24079;51.824;4.682;2023-02-18T04:27:04;10.40;99.90
37998;DHT22;24079;51.824;4.682;2023-02-18T04:29:30;10.40;99.90
37998;DHT22;24079;51.824;4.682;2023-02-18T04:31:56;10.30;99.90
37998;DHT22;24079;51.824;4.682;2023-02-18T04:34:21;10.40;99.90
37998;DHT22;24079;51.824;4.682;2023-02-18T04:36:47;10.30;99.90
37998;DHT22;24079;51.824;4.682;2023-02-18T04:39:12;10.30;99.90
37998;DHT22;24079;51.824;4.682;2023-02-18T04:41:38;10.30;99.90
37998;DHT22;24079;51.824;4.682;2023-02-18T04:44:04;10.30;99.90
37998;DHT22;24079;51.824;4.682;2023-02-18T04:46:30;10.20;99.90
37998;DHT22;24079;51.824;4.682;2023-02-18T04:48:56;10.20;99.90
37998;DHT22;24079;51.824;4.682;2023-02-18T04:51:21;10.20;99.90
37998;DHT22;24079;51.824;4.682;2023-02-18T04:53:47;10.20;99.90
37998;DHT22;24079;51.824;4.682;2023-02-18T04:56:13;10.10;99.90
37998;DHT22;24079;51.824;4.682;2023-02-18T04:58:38;10.10;99.90
37998;DHT22;24079;51.824;4.682;2023-02-18T05:01:04;10.10;99.90
37998;DHT22;24079;51.824;4.682;2023-02-18T05:03:30;10.10;99.90
37998;DHT22;24079;51.824;4.682;2023-02-18T05:05:56;10.10;99.90
37998;DHT22;24079;51.824;4.682;2023-02-18T05:08:22;10.10;99.90
37998;DHT22;24079;51.824;4.682;2023-02-18T05:10:48;10.10;99.90
37998;DHT22;24079;51.824;4.682;2023-02-18T05:13:14;10.10;99.90
37998;DHT22;24079;51.824;4.682;2023-02-18T05:15:40;10.10;99.90
37998;DHT22;24079;51.824;4.682;2023-02-18T05:18:06;10.10;99.90
37998;DHT22;24079;51.824;4.682;2023-02-18T05:20:32;10.10;99.90
37998;DHT22;24079;51.824;4.682;2023-02-18T05:22:57;10.10;99.90
37998;DHT22;24079;51.824;4.682;2023-02-18T05:25:23;10.10;99.90
37998;DHT22;24079;51.824;4.682;2023-02-18T05:27:49;10.10;99.90
37998;DHT22;24079;51.824;4.682;2023-02-18T05:30:14;10.10;99.90
37998;DHT22;24079;51.824;4.682;2023-02-18T05:32:40;10.10;99.90
37998;DHT22;24079;51.824;4.682;2023-02-18T05:35:06;10.20;99.90
37998;DHT22;24079;51.824;4.682;2023-02-18T05:37:32;10.20;99.90
37998;DHT22;24079;51.824;4.682;2023-02-18T05:39:57;10.20;99.90
37998;DHT22;24079;51.824;4.682;2023-02-18T05:42:23;10.20;99.90
37998;DHT22;24079;51.824;4.682;2023-02-18T05:44:49;10.20;99.90
37998;DHT22;24079;51.824;4.682;2023-02-18T05:47:14;10.20;99.90
37998;DHT22;24079;51.824;4.682;2023-02-18T05:49:41;10.20;99.90
37998;DHT22;24079;51.824;4.682;2023-02-18T05:52:08;10.20;99.90
37998;DHT22;24079;51.824;4.682;2023-02-18T05:54:34;10.20;99.90
37998;DHT22;24079;51.824;4.682;2023-02-18T05:57:00;10.20;99.90
37998;DHT22;24079;51.824;4.682;2023-02-18T05:59:26;10.20;99.90
37998;DHT22;24079;51.824;4.682;2023-02-18T06:01:52;10.20;99.90
37998;DHT22;24079;51.824;4.682;2023-02-18T06:04:18;10.30;99.90
37998;DHT22;24079;51.824;4.682;2023-02-18T06:06:44;10.20;99.90
37998;DHT22;24079;51.824;4.682;2023-02-18T06:09:10;10.20;99.90
37998;DHT22;24079;51.824;4.682;2023-02-18T06:11:36;10.20;99.90
37998;DHT22;24079;51.824;4.682;2023-02-18T06:14:02;10.20;99.90
37998;DHT22;24079;51.824;4.682;2023-02-18T06:16:28;10.20;99.90
37998;DHT22;24079;51.824;4.682;2023-02-18T06:18:54;10.20;99.90
37998;DHT22;24079;51.824;4.682;2023-02-18T06:21:19;10.20;99.90
37998;DHT22;24079;51.824;4.682;2023-02-18T06:23:45;10.20;99.90
37998;DHT22;24079;51.824;4.682;2023-02-18T06:26:11;10.20;99.90
37998;DHT22;24079;51.824;4.682;2023-02-18T06:28:36;10.20;99.90
37998;DHT22;24079;51.824;4.682;2023-02-18T06:31:02;10.20;99.90
37998;DHT22;24079;51.824;4.682;2023-02-18T06:33:28;10.10;99.90
37998;DHT22;24079;51.824;4.682;2023-02-18T06:35:59;10.10;99.90
37998;DHT22;24079;51.824;4.682;2023-02-18T06:38:25;10.10;99.90
37998;DHT22;24079;51.824;4.682;2023-02-18T06:40:51;10.10;99.90
37998;DHT22;24079;51.824;4.682;2023-02-18T06:43:18;10.10;99.90
37998;DHT22;24079;51.824;4.682;2023-02-18T06:45:44;10.10;99.90
37998;DHT22;24079;51.824;4.682;2023-02-18T06:48:09;10.00;99.90
37998;DHT22;24079;51.824;4.682;2023-02-18T06:50:35;10.00;99.90
37998;DHT22;24079;51.824;4.682;2023-02-18T06:53:01;10.00;99.90
37998;DHT22;24079;51.824;4.682;2023-02-18T06:55:26;10.00;99.90
37998;DHT22;24079;51.824;4.682;2023-02-18T06:57:52;10.00;99.90
37998;DHT22;24079;51.824;4.682;2023-02-18T07:00:18;10.00;99.90
37998;DHT22;24079;51.824;4.682;2023-02-18T07:02:44;10.00;99.90
37998;DHT22;24079;51.824;4.682;2023-02-18T07:05:10;10.00;99.90
37998;DHT22;24079;51.824;4.682;2023-02-18T07:07:35;10.00;99.90
37998;DHT22;24079;51.824;4.682;2023-02-18T07:10:01;10.00;99.90
37998;DHT22;24079;51.824;4.682;2023-02-18T07:12:27;10.00;99.90
37998;DHT22;24079;51.824;4.682;2023-02-18T07:14:53;10.00;99.90
37998;DHT22;24079;51.824;4.682;2023-02-18T07:17:18;10.00;99.90
37998;DHT22;24079;51.824;4.682;2023-02-18T07:19:44;10.00;99.90
37998;DHT22;24079;51.824;4.682;2023-02-18T07:22:10;10.10;99.90
37998;DHT22;24079;51.824;4.682;2023-02-18T07:24:35;10.00;99.90
37998;DHT22;24079;51.824;4.682;2023-02-18T07:27:01;10.00;99.90
37998;DHT22;24079;51.824;4.682;2023-02-18T07:29:27;10.10;99.90
37998;DHT22;24079;51.824;4.682;2023-02-18T07:31:52;10.10;99.90
37998;DHT22;24079;51.824;4.682;2023-02-18T07:34:19;10.10;99.90
37998;DHT22;24079;51.824;4.682;2023-02-18T07:36:44;10.10;99.90
37998;DHT22;24079;51.824;4.682;2023-02-18T07:39:10;10.10;99.90
37998;DHT22;24079;51.824;4.682;2023-02-18T07:41:36;10.10;99.90
37998;DHT22;24079;51.824;4.682;2023-02-18T07:44:02;10.10;99.90
37998;DHT22;24079;51.824;4.682;2023-02-18T07:46:28;10.10;99.90
37998;DHT22;24079;51.824;4.682;2023-02-18T07:48:55;10.20;99.90
37998;DHT22;24079;51.824;4.682;2023-02-18T07:51:20;10.20;99.90
37998;DHT22;24079;51.824;4.682;2023-02-18T07:53:46;10.20;99.90
37998;DHT22;24079;51.824;4.682;2023-02-18T07:56:12;10.20;99.90
37998;DHT22;24079;51.824;4.682;2023-02-18T07:58:38;10.20;99.90
37998;DHT22;24079;51.824;4.682;2023-02-18T08:01:10;10.20;99.90
37998;DHT22;24079;51.824;4.682;2023-02-18T08:03:36;10.30;99.90
37998;DHT22;24079;51.824;4.682;2023-02-18T08:06:04;10.30;99.90
37998;DHT22;24079;51.824;4.682;2023-02-18T08:08:31;10.30;99.90
37998;DHT22;24079;51.824;4.682;2023-02-18T08:11:01;10.30;99.90
37998;DHT22;24079;51.824;4.682;2023-02-18T08:13:28;10.30;99.90
37998;DHT22;24079;51.824;4.682;2023-02-18T08:15:55;10.30;99.90
37998;DHT22;24079;51.824;4.682;2023-02-18T08:18:22;10.30;99.90
37998;DHT22;24079;51.824;4.682;2023-02-18T08:20:48;10.30;99.90
37998;DHT22;24079;51.824;4.682;2023-02-18T08:23:17;10.30;99.90
37998;DHT22;24079;51.824;4.682;2023-02-18T08:25:48;10.30;99.90
37998;DHT22;24079;51.824;4.682;2023-02-18T08:28:14;10.30;99.90
37998;DHT22;24079;51.824;4.682;2023-02-18T08:30:46;10.30;99.90
37998;DHT22;24079;51.824;4.682;2023-02-18T08:33:13;10.30;99.90
37998;DHT22;24079;51.824;4.682;2023-02-18T08:35:39;10.30;99.90
37998;DHT22;24079;51.824;4.682;2023-02-18T08:38:05;10.30;99.90
37998;DHT22;24079;51.824;4.682;2023-02-18T08:40:30;10.40;99.90
37998;DHT22;24079;51.824;4.682;2023-02-18T08:42:56;10.40;99.90
37998;DHT22;24079;51.824;4.682;2023-02-18T08:45:21;10.40;99.90
37998;DHT22;24079;51.824;4.682;2023-02-18T08:47:47;10.40;99.90
37998;DHT22;24079;51.824;4.682;2023-02-18T08:50:13;10.40;99.90
37998;DHT22;24079;51.824;4.682;2023-02-18T08:52:38;10.40;99.90
37998;DHT22;24079;51.824;4.682;2023-02-18T08:55:05;10.40;99.90
37998;DHT22;24079;51.824;4.682;2023-02-18T08:57:30;10.40;99.90
37998;DHT22;24079;51.824;4.682;2023-02-18T08:59:56;10.40;99.90
37998;DHT22;24079;51.824;4.682;2023-02-18T09:02:22;10.40;99.90
37998;DHT22;24079;51.824;4.682;2023-02-18T09:04:48;10.40;99.90
37998;DHT22;24079;51.824;4.682;2023-02-18T09:07:13;10.40;99.90
37998;DHT22;24079;51.824;4.682;2023-02-18T09:09:39;10.40;99.90
37998;DHT22;24079;51.824;4.682;2023-02-18T09:12:05;10.40;99.90
37998;DHT22;24079;51.824;4.682;2023-02-18T09:14:30;10.40;99.90
37998;DHT22;24079;51.824;4.682;2023-02-18T09:16:57;10.40;99.90
37998;DHT22;24079;51.824;4.682;2023-02-18T09:19:23;10.40;99.90
37998;DHT22;24079;51.824;4.682;2023-02-18T09:21:52;10.50;99.90
37998;DHT22;24079;51.824;4.682;2023-02-18T09:24:19;10.50;99.90
37998;DHT22;24079;51.824;4.682;2023-02-18T09:26:45;10.50;99.90
37998;DHT22;24079;51.824;4.682;2023-02-18T09:29:11;10.50;99.90
37998;DHT22;24079;51.824;4.682;2023-02-18T09:31:37;10.50;99.90
37998;DHT22;24079;51.824;4.682;2023-02-18T09:34:04;10.50;99.90
37998;DHT22;24079;51.824;4.682;2023-02-18T09:36:31;10.50;99.90
37998;DHT22;24079;51.824;4.682;2023-02-18T09:38:58;10.50;99.90
37998;DHT22;24079;51.824;4.682;2023-02-18T09:41:33;10.50;99.90
37998;DHT22;24079;51.824;4.682;2023-02-18T09:44:28;10.60;99.90
37998;DHT22;24079;51.824;4.682;2023-02-18T09:46:59;10.60;99.90
37998;DHT22;24079;51.824;4.682;2023-02-18T09:49:28;10.60;99.90
37998;DHT22;24079;51.824;4.682;2023-02-18T09:51:56;10.70;99.90
37998;DHT22;24079;51.824;4.682;2023-02-18T09:54:27;10.70;99.90
37998;DHT22;24079;51.824;4.682;2023-02-18T09:56:52;10.70;99.90
37998;DHT22;24079;51.824;4.682;2023-02-18T09:59:20;10.70;99.90
37998;DHT22;24079;51.824;4.682;2023-02-18T10:01:49;10.70;99.90
37998;DHT22;24079;51.824;4.682;2023-02-18T10:04:33;10.80;99.90
37998;DHT22;24079;51.824;4.682;2023-02-18T10:07:01;10.80;99.90
37998;DHT22;24079;51.824;4.682;2023-02-18T10:09:34;10.80;99.90
37998;DHT22;24079;51.824;4.682;2023-02-18T10:12:20;10.90;99.90
37998;DHT22;24079;51.824;4.682;2023-02-18T10:14:55;10.90;99.90
37998;DHT22;24079;51.824;4.682;2023-02-18T10:17:23;10.90;99.90
37998;DHT22;24079;51.824;4.682;2023-02-18T10:19:50;10.90;99.90
37998;DHT22;24079;51.824;4.682;2023-02-18T10:22:17;10.90;99.90
37998;DHT22;24079;51.824;4.682;2023-02-18T10:24:51;11.00;99.90
37998;DHT22;24079;51.824;4.682;2023-02-18T10:27:24;11.00;99.90
37998;DHT22;24079;51.824;4.682;2023-02-18T10:29:50;11.00;99.90
37998;DHT22;24079;51.824;4.682;2023-02-18T10:32:26;11.00;99.90
37998;DHT22;24079;51.824;4.682;2023-02-18T10:38:12;11.00;99.90
37998;DHT22;24079;51.824;4.682;2023-02-18T10:51:33;11.20;99.90
37998;DHT22;24079;51.824;4.682;2023-02-18T10:54:00;11.10;99.90
37998;DHT22;24079;51.824;4.682;2023-02-18T10:56:47;11.10;99.90
37998;DHT22;24079;51.824;4.682;2023-02-18T10:59:24;11.10;99.90
37998;DHT22;24079;51.824;4.682;2023-02-18T11:02:01;11.20;99.90
37998;DHT22;24079;51.824;4.682;2023-02-18T11:04:35;11.20;99.90
37998;DHT22;24079;51.824;4.682;2023-02-18T11:07:04;11.20;99.90
37998;DHT22;24079;51.824;4.682;2023-02-18T11:09:45;11.20;99.90
37998;DHT22;24079;51.824;4.682;2023-02-18T11:12:22;11.20;99.90
37998;DHT22;24079;51.824;4.682;2023-02-18T11:15:03;11.20;99.90
37998;DHT22;24079;51.824;4.682;2023-02-18T11:17:33;11.20;99.90
37998;DHT22;24079;51.824;4.682;2023-02-18T11:20:20;11.40;99.90
37998;DHT22;24079;51.824;4.682;2023-02-18T11:22:46;11.40;99.90
37998;DHT22;24079;51.824;4.682;2023-02-18T11:25:27;11.40;99.90
37998;DHT22;24079;51.824;4.682;2023-02-18T11:30:36;11.50;99.90
37998;DHT22;24079;51.824;4.682;2023-02-18T11:33:06;11.60;99.90
37998;DHT22;24079;51.824;4.682;2023-02-18T11:35:34;11.50;99.90
37998;DHT22;24079;51.824;4.682;2023-02-18T11:38:02;11.60;99.90
37998;DHT22;24079;51.824;4.682;2023-02-18T11:40:35;11.70;99.90
37998;DHT22;24079;51.824;4.682;2023-02-18T11:43:19;11.70;99.90
37998;DHT22;24079;51.824;4.682;2023-02-18T11:45:45;11.70;99.90
37998;DHT22;24079;51.824;4.682;2023-02-18T11:48:17;11.70;99.90
37998;DHT22;24079;51.824;4.682;2023-02-18T11:50:44;11.80;99.90
37998;DHT22;24079;51.824;4.682;2023-02-18T11:53:30;11.80;99.90
37998;DHT22;24079;51.824;4.682;2023-02-18T11:55:58;11.80;99.90
37998;DHT22;24079;51.824;4.682;2023-02-18T11:58:24;11.80;99.90
37998;DHT22;24079;51.824;4.682;2023-02-18T12:00:54;11.80;99.90
37998;DHT22;24079;51.824;4.682;2023-02-18T12:03:30;11.80;99.90
37998;DHT22;24079;51.824;4.682;2023-02-18T12:06:02;11.70;99.90
37998;DHT22;24079;51.824;4.682;2023-02-18T12:08:34;11.60;99.90
37998;DHT22;24079;51.824;4.682;2023-02-18T12:11:11;11.60;99.90
37998;DHT22;24079;51.824;4.682;2023-02-18T12:13:57;11.60;99.90
37998;DHT22;24079;51.824;4.682;2023-02-18T12:21:35;11.60;99.90
37998;DHT22;24079;51.824;4.682;2023-02-18T12:27:13;11.70;99.90
37998;DHT22;24079;51.824;4.682;2023-02-18T12:37:36;11.90;99.90
37998;DHT22;24079;51.824;4.682;2023-02-18T12:43:02;11.80;99.90
37998;DHT22;24079;51.824;4.682;2023-02-18T12:46:15;11.80;99.90
37998;DHT22;24079;51.824;4.682;2023-02-18T13:00:44;11.90;99.90
37998;DHT22;24079;51.824;4.682;2023-02-18T13:03:49;11.90;99.90
37998;DHT22;24079;51.824;4.682;2023-02-18T13:09:14;11.90;99.90
37998;DHT22;24079;51.824;4.682;2023-02-18T13:15:16;12.00;99.90
37998;DHT22;24079;51.824;4.682;2023-02-18T13:17:42;12.00;99.90
37998;DHT22;24079;51.824;4.682;2023-02-18T13:20:21;12.00;99.90
37998;DHT22;24079;51.824;4.682;2023-02-18T13:22:48;12.00;99.90
37998;DHT22;24079;51.824;4.682;2023-02-18T13:25:16;12.10;99.90
37998;DHT22;24079;51.824;4.682;2023-02-18T13:30:30;12.20;99.90
37998;DHT22;24079;51.824;4.682;2023-02-18T13:35:55;12.20;99.90
37998;DHT22;24079;51.824;4.682;2023-02-18T13:41:08;12.30;99.90
37998;DHT22;24079;51.824;4.682;2023-02-18T13:43:35;12.30;99.90
37998;DHT22;24079;51.824;4.682;2023-02-18T13:46:16;12.30;99.90
37998;DHT22;24079;51.824;4.682;2023-02-18T13:56:34;12.30;99.90
37998;DHT22;24079;51.824;4.682;2023-02-18T13:59:14;12.30;99.90
37998;DHT22;24079;51.824;4.682;2023-02-18T14:07:26;12.40;99.90
37998;DHT22;24079;51.824;4.682;2023-02-18T14:09:58;12.30;99.90
37998;DHT22;24079;51.824;4.682;2023-02-18T14:18:22;12.30;99.90
37998;DHT22;24079;51.824;4.682;2023-02-18T14:20:44;12.30;99.90
37998;DHT22;24079;51.824;4.682;2023-02-18T14:28:35;12.10;99.90
37998;DHT22;24079;51.824;4.682;2023-02-18T14:31:20;12.00;99.90
37998;DHT22;24079;51.824;4.682;2023-02-18T14:34:00;12.00;99.90
37998;DHT22;24079;51.824;4.682;2023-02-18T14:48:08;11.80;99.90
37998;DHT22;24079;51.824;4.682;2023-02-18T14:50:37;11.90;99.90
37998;DHT22;24079;51.824;4.682;2023-02-18T14:53:10;11.80;99.90
37998;DHT22;24079;51.824;4.682;2023-02-18T14:55:42;11.80;99.90
37998;DHT22;24079;51.824;4.682;2023-02-18T15:00:54;11.80;99.90
37998;DHT22;24079;51.824;4.682;2023-02-18T15:03:20;11.80;99.90
37998;DHT22;24079;51.824;4.682;2023-02-18T15:05:50;11.80;99.90
37998;DHT22;24079;51.824;4.682;2023-02-18T15:08:26;11.80;99.90
37998;DHT22;24079;51.824;4.682;2023-02-18T15:11:01;11.80;99.90
37998;DHT22;24079;51.824;4.682;2023-02-18T15:13:31;11.90;99.90
37998;DHT22;24079;51.824;4.682;2023-02-18T15:16:07;11.90;99.90
37998;DHT22;24079;51.824;4.682;2023-02-18T15:18:54;11.80;99.90
37998;DHT22;24079;51.824;4.682;2023-02-18T15:21:27;11.80;99.90
37998;DHT22;24079;51.824;4.682;2023-02-18T15:23:54;11.80;99.90
37998;DHT22;24079;51.824;4.682;2023-02-18T15:26:20;11.70;99.90
37998;DHT22;24079;51.824;4.682;2023-02-18T15:29:00;11.70;99.90
37998;DHT22;24079;51.824;4.682;2023-02-18T15:31:29;11.70;99.90
37998;DHT22;24079;51.824;4.682;2023-02-18T15:33:55;11.70;99.90
37998;DHT22;24079;51.824;4.682;2023-02-18T15:36:21;11.70;99.90
37998;DHT22;24079;51.824;4.682;2023-02-18T15:38:47;11.60;99.90
37998;DHT22;24079;51.824;4.682;2023-02-18T15:41:15;11.60;99.90
37998;DHT22;24079;51.824;4.682;2023-02-18T15:43:54;11.60;99.90
37998;DHT22;24079;51.824;4.682;2023-02-18T15:46:21;11.60;99.90
37998;DHT22;24079;51.824;4.682;2023-02-18T15:48:49;11.60;99.90
37998;DHT22;24079;51.824;4.682;2023-02-18T15:51:21;11.60;99.90
37998;DHT22;24079;51.824;4.682;2023-02-18T15:53:50;11.60;99.90
37998;DHT22;24079;51.824;4.682;2023-02-18T15:56:36;11.50;99.90
37998;DHT22;24079;51.824;4.682;2023-02-18T16:04:38;11.50;99.90
37998;DHT22;24079;51.824;4.682;2023-02-18T16:07:23;11.50;99.90
37998;DHT22;24079;51.824;4.682;2023-02-18T16:09:50;11.50;99.90
37998;DHT22;24079;51.824;4.682;2023-02-18T16:12:31;11.60;99.90
37998;DHT22;24079;51.824;4.682;2023-02-18T16:14:58;11.50;99.90
37998;DHT22;24079;51.824;4.682;2023-02-18T16:17:26;11.50;99.90
37998;DHT22;24079;51.824;4.682;2023-02-18T16:20:02;11.50;99.90
37998;DHT22;24079;51.824;4.682;2023-02-18T16:22:50;11.60;99.90
37998;DHT22;24079;51.824;4.682;2023-02-18T16:30:26;11.60;99.90
37998;DHT22;24079;51.824;4.682;2023-02-18T16:32:54;11.60;99.90
37998;DHT22;24079;51.824;4.682;2023-02-18T16:35:21;11.60;99.90
37998;DHT22;24079;51.824;4.682;2023-02-18T16:37:47;11.50;99.90
37998;DHT22;24079;51.824;4.682;2023-02-18T16:40:25;11.50;99.90
37998;DHT22;24079;51.824;4.682;2023-02-18T16:42:51;11.40;99.90
37998;DHT22;24079;51.824;4.682;2023-02-18T16:45:18;11.40;99.90
37998;DHT22;24079;51.824;4.682;2023-02-18T16:47:46;11.40;99.90
37998;DHT22;24079;51.824;4.682;2023-02-18T16:50:20;11.30;99.90
37998;DHT22;24079;51.824;4.682;2023-02-18T16:52:47;11.40;99.90
37998;DHT22;24079;51.824;4.682;2023-02-18T16:57:41;11.40;99.90
37998;DHT22;24079;51.824;4.682;2023-02-18T17:00:07;11.40;99.90
37998;DHT22;24079;51.824;4.682;2023-02-18T17:02:33;11.30;99.90
37998;DHT22;24079;51.824;4.682;2023-02-18T17:05:00;11.30;99.90
37998;DHT22;24079;51.824;4.682;2023-02-18T17:07:25;11.30;99.90
37998;DHT22;24079;51.824;4.682;2023-02-18T17:09:51;11.20;99.90
37998;DHT22;24079;51.824;4.682;2023-02-18T17:12:17;11.20;99.90
37998;DHT22;24079;51.824;4.682;2023-02-18T17:14:42;11.10;99.90
37998;DHT22;24079;51.824;4.682;2023-02-18T17:17:11;11.20;99.90
37998;DHT22;24079;51.824;4.682;2023-02-18T17:19:38;11.10;99.90
37998;DHT22;24079;51.824;4.682;2023-02-18T17:22:04;11.10;99.90
37998;DHT22;24079;51.824;4.682;2023-02-18T17:24:30;11.10;99.90
37998;DHT22;24079;51.824;4.682;2023-02-18T17:26:56;11.10;99.90
37998;DHT22;24079;51.824;4.682;2023-02-18T17:29:22;11.10;99.90
37998;DHT22;24079;51.824;4.682;2023-02-18T17:31:53;11.10;99.90
37998;DHT22;24079;51.824;4.682;2023-02-18T17:34:25;11.10;99.90
37998;DHT22;24079;51.824;4.682;2023-02-18T17:36:51;11.00;99.90
37998;DHT22;24079;51.824;4.682;2023-02-18T17:39:17;11.00;99.90
37998;DHT22;24079;51.824;4.682;2023-02-18T17:41:44;11.00;99.90
37998;DHT22;24079;51.824;4.682;2023-02-18T17:44:18;11.00;99.90
37998;DHT22;24079;51.824;4.682;2023-02-18T17:46:45;10.90;99.90
37998;DHT22;24079;51.824;4.682;2023-02-18T17:49:14;10.90;99.90
37998;DHT22;24079;51.824;4.682;2023-02-18T17:51:41;10.90;99.90
37998;DHT22;24079;51.824;4.682;2023-02-18T17:54:16;10.90;99.90
37998;DHT22;24079;51.824;4.682;2023-02-18T17:56:43;10.80;99.90
37998;DHT22;24079;51.824;4.682;2023-02-18T17:59:10;10.80;99.90
37998;DHT22;24079;51.824;4.682;2023-02-18T18:01:36;10.80;99.90
37998;DHT22;24079;51.824;4.682;2023-02-18T18:04:02;10.70;99.90
37998;DHT22;24079;51.824;4.682;2023-02-18T18:06:28;10.70;99.90
37998;DHT22;24079;51.824;4.682;2023-02-18T18:08:54;10.70;99.90
37998;DHT22;24079;51.824;4.682;2023-02-18T18:11:22;10.70;99.90
37998;DHT22;24079;51.824;4.682;2023-02-18T18:13:49;10.60;99.90
37998;DHT22;24079;51.824;4.682;2023-02-18T18:16:17;10.60;99.90